sensor_id;sensor_type;location;lat;lon;timestamp;pressure;altitude;pressure_sealevel;temperature;humidity
57192;BME280;43052;52.588;13.396;2022-09-09T00:00:53;100620.69;;;14.32;83.71
57192;BME280;43052;52.588;13.396;2022-09-09T00:03:29;100625.13;;;14.29;83.56
57192;BME280;43052;52.588;13.396;2022-09-09T00:06:07;100624.34;;;14.25;83.62
57192;BME280;43052;52.588;13.396;2022-09-09T00:11:13;100623.66;;;14.18;83.85
57192;BME280;43052;52.588;13.396;2022-09-09T00:13:52;100625.44;;;14.16;83.93
57192;BME280;43052;52.588;13.396;2022-09-09T00:16:19;100616.72;;;14.14;84.03
57192;BME280;43052;52.588;13.396;2022-09-09T00:21:17;100609.81;;;14.08;83.67
57192;BME280;43052;52.588;13.396;2022-09-09T00:23:50;100608.19;;;14.04;83.64
57192;BME280;43052;52.588;13.396;2022-09-09T00:31:33;100610.81;;;14.03;83.87
57192;BME280;43052;52.588;13.396;2022-09-09T00:34:02;100602.97;;;14.01;84.24
57192;BME280;43052;52.588;13.396;2022-09-09T00:36:31;100613.28;;;14.10;84.74
57192;BME280;43052;52.588;13.396;2022-09-09T00:39:00;100606.34;;;14.08;84.29
57192;BME280;43052;52.588;13.396;2022-09-09T00:41:33;100602.91;;;14.04;84.17
57192;BME280;43052;52.588;13.396;2022-09-09T00:44:28;100601.28;;;13.99;84.28
57192;BME280;43052;52.588;13.396;2022-09-09T00:49:36;100602.97;;;14.01;84.44
57192;BME280;43052;52.588;13.396;2022-09-09T00:57:32;100605.56;;;14.03;84.73
57192;BME280;43052;52.588;13.396;2022-09-09T01:05:46;100605.75;;;13.95;84.70
57192;BME280;43052;52.588;13.396;2022-09-09T01:08:39;100611.88;;;13.95;84.81
57192;BME280;43052;52.588;13.396;2022-09-09T01:11:11;100617.06;;;13.99;85.55
57192;BME280;43052;52.588;13.396;2022-09-09T01:13:41;100605.59;;;14.01;85.58
57192;BME280;43052;52.588;13.396;2022-09-09T01:16:10;100611.72;;;14.02;85.40
57192;BME280;43052;52.588;13.396;2022-09-09T01:18:44;100615.22;;;14.02;85.43
57192;BME280;43052;52.588;13.396;2022-09-09T01:22:14;100613.44;;;14.04;85.49
57192;BME280;43052;52.588;13.396;2022-09-09T01:27:01;100617.91;;;14.01;85.08
57192;BME280;43052;52.588;13.396;2022-09-09T01:29:27;100610.91;;;13.98;85.48
57192;BME280;43052;52.588;13.396;2022-09-09T01:31:57;100607.38;;;14.01;85.54
57192;BME280;43052;52.588;13.396;2022-09-09T01:34:27;100604.78;;;13.99;85.33
57192;BME280;43052;52.588;13.396;2022-09-09T01:37:06;100608.38;;;13.95;85.49
57192;BME280;43052;52.588;13.396;2022-09-09T01:39:33;100612.81;;;13.93;85.53
57192;BME280;43052;52.588;13.396;2022-09-09T01:41:59;100605.84;;;13.90;85.58
57192;BME280;43052;52.588;13.396;2022-09-09T01:44:26;100609.38;;;13.89;85.38
57192;BME280;43052;52.588;13.396;2022-09-09T01:46:52;100616.47;;;13.86;85.41
57192;BME280;43052;52.588;13.396;2022-09-09T01:49:18;100616.47;;;13.84;85.76
57192;BME280;43052;52.588;13.396;2022-09-09T01:51:46;100613.00;;;13.84;85.69
57192;BME280;43052;52.588;13.396;2022-09-09T01:54:13;100605.25;;;13.77;85.94
57192;BME280;43052;52.588;13.396;2022-09-09T01:56:55;100617.50;;;13.78;85.88
57192;BME280;43052;52.588;13.396;2022-09-09T01:59:45;100620.13;;;13.78;86.19
57192;BME280;43052;52.588;13.396;2022-09-09T02:07:41;100622.81;;;13.75;86.20
57192;BME280;43052;52.588;13.396;2022-09-09T02:10:31;100618.44;;;13.74;85.98
57192;BME280;43052;52.588;13.396;2022-09-09T02:13:11;100621.16;;;13.70;85.96
57192;BME280;43052;52.588;13.396;2022-09-09T02:15:50;100620.41;;;13.65;85.93
57192;BME280;43052;52.588;13.396;2022-09-09T02:18:25;100624.78;;;13.64;85.98
57192;BME280;43052;52.588;13.396;2022-09-09T02:20:53;100624.88;;;13.59;85.76
57192;BME280;43052;52.588;13.396;2022-09-09T02:23:19;100623.16;;;13.58;85.50
57192;BME280;43052;52.588;13.396;2022-09-09T02:25:45;100619.81;;;13.50;85.63
57192;BME280;43052;52.588;13.396;2022-09-09T02:28:12;100634.66;;;13.51;85.75
57192;BME280;43052;52.588;13.396;2022-09-09T02:30:41;100629.50;;;13.46;85.69
57192;BME280;43052;52.588;13.396;2022-09-09T02:33:08;100637.38;;;13.46;85.79
57192;BME280;43052;52.588;13.396;2022-09-09T02:35:35;100626.03;;;13.44;85.74
57192;BME280;43052;52.588;13.396;2022-09-09T02:38:07;100633.84;;;13.49;85.83
57192;BME280;43052;52.588;13.396;2022-09-09T02:40:34;100626.84;;;13.50;85.70
57192;BME280;43052;52.588;13.396;2022-09-09T02:42:59;100625.00;;;13.53;85.71
57192;BME280;43052;52.588;13.396;2022-09-09T02:45:41;100629.34;;;13.56;85.77
57192;BME280;43052;52.588;13.396;2022-09-09T02:48:14;100630.22;;;13.55;85.75
57192;BME280;43052;52.588;13.396;2022-09-09T02:56:23;100630.41;;;13.45;86.01
57192;BME280;43052;52.588;13.396;2022-09-09T02:58:50;100622.53;;;13.45;85.90
57192;BME280;43052;52.588;13.396;2022-09-09T03:01:17;100619.97;;;13.41;85.77
57192;BME280;43052;52.588;13.396;2022-09-09T03:03:42;100634.94;;;13.39;85.79
57192;BME280;43052;52.588;13.396;2022-09-09T03:06:09;100628.78;;;13.40;85.97
57192;BME280;43052;52.588;13.396;2022-09-09T03:08:37;100633.16;;;13.39;85.97
57192;BME280;43052;52.588;13.396;2022-09-09T03:11:02;100633.16;;;13.36;85.84
57192;BME280;43052;52.588;13.396;2022-09-09T03:13:27;100633.25;;;13.33;85.81
57192;BME280;43052;52.588;13.396;2022-09-09T03:15:52;100635.91;;;13.30;85.75
57192;BME280;43052;52.588;13.396;2022-09-09T03:18:18;100623.81;;;13.23;85.74
57192;BME280;43052;52.588;13.396;2022-09-09T03:20:43;100639.56;;;13.23;85.74
57192;BME280;43052;52.588;13.396;2022-09-09T03:23:08;100639.66;;;13.18;85.63
57192;BME280;43052;52.588;13.396;2022-09-09T03:25:34;100649.34;;;13.14;85.51
57192;BME280;43052;52.588;13.396;2022-09-09T03:28:01;100640.66;;;13.09;85.51
57192;BME280;43052;52.588;13.396;2022-09-09T03:30:27;100646.84;;;13.08;85.47
57192;BME280;43052;52.588;13.396;2022-09-09T03:32:52;100650.34;;;13.07;85.45
57192;BME280;43052;52.588;13.396;2022-09-09T03:35:18;100644.34;;;13.00;85.55
57192;BME280;43052;52.588;13.396;2022-09-09T03:37:44;100652.16;;;13.04;85.48
57192;BME280;43052;52.588;13.396;2022-09-09T03:40:10;100653.88;;;13.05;85.32
57192;BME280;43052;52.588;13.396;2022-09-09T03:42:36;100651.25;;;13.05;85.53
57192;BME280;43052;52.588;13.396;2022-09-09T03:45:03;100645.25;;;12.98;85.51
57192;BME280;43052;52.588;13.396;2022-09-09T03:47:28;100648.75;;;12.98;85.58
57192;BME280;43052;52.588;13.396;2022-09-09T03:49:54;100651.41;;;12.97;85.44
57192;BME280;43052;52.588;13.396;2022-09-09T03:52:19;100653.13;;;12.96;85.57
57192;BME280;43052;52.588;13.396;2022-09-09T03:54:46;100661.91;;;12.97;85.58
57192;BME280;43052;52.588;13.396;2022-09-09T03:57:12;100660.19;;;12.94;85.33
57192;BME280;43052;52.588;13.396;2022-09-09T03:59:41;100654.91;;;12.96;85.78
57192;BME280;43052;52.588;13.396;2022-09-09T04:02:06;100656.59;;;13.00;86.01
57192;BME280;43052;52.588;13.396;2022-09-09T04:04:32;100656.53;;;13.03;85.87
57192;BME280;43052;52.588;13.396;2022-09-09T04:06:57;100654.78;;;13.04;85.75
57192;BME280;43052;52.588;13.396;2022-09-09T04:09:22;100652.22;;;13.00;85.51
57192;BME280;43052;52.588;13.396;2022-09-09T04:11:48;100654.84;;;13.00;85.69
57192;BME280;43052;52.588;13.396;2022-09-09T04:14:14;100647.81;;;13.01;85.75
57192;BME280;43052;52.588;13.396;2022-09-09T04:16:39;100647.81;;;13.01;85.74
57192;BME280;43052;52.588;13.396;2022-09-09T04:19:08;100647.00;;;12.99;85.78
57192;BME280;43052;52.588;13.396;2022-09-09T04:21:33;100645.25;;;12.96;85.54
57192;BME280;43052;52.588;13.396;2022-09-09T04:23:58;100647.88;;;12.96;85.76
57192;BME280;43052;52.588;13.396;2022-09-09T04:26:24;100647.88;;;12.96;85.64
57192;BME280;43052;52.588;13.396;2022-09-09T04:28:49;100642.72;;;12.93;85.53
57192;BME280;43052;52.588;13.396;2022-09-09T04:31:18;100654.03;;;12.97;85.69
57192;BME280;43052;52.588;13.396;2022-09-09T04:33:45;100658.38;;;12.98;85.68
57192;BME280;43052;52.588;13.396;2022-09-09T04:36:11;100661.81;;;13.01;86.00
57192;BME280;43052;52.588;13.396;2022-09-09T04:38:37;100654.75;;;13.05;85.82
57192;BME280;43052;52.588;13.396;2022-09-09T04:41:03;100659.94;;;13.10;85.93
57192;BME280;43052;52.588;13.396;2022-09-09T04:43:28;100662.44;;;13.16;85.55
57192;BME280;43052;52.588;13.396;2022-09-09T04:45:53;100668.56;;;13.16;85.71
57192;BME280;43052;52.588;13.396;2022-09-09T04:48:19;100668.56;;;13.16;85.71
57192;BME280;43052;52.588;13.396;2022-09-09T04:51:00;100666.72;;;13.22;85.62
57192;BME280;43052;52.588;13.396;2022-09-09T04:53:26;100673.59;;;13.29;85.64
57192;BME280;43052;52.588;13.396;2022-09-09T04:55:53;100666.63;;;13.26;85.43
57192;BME280;43052;52.588;13.396;2022-09-09T04:58:26;100684.75;;;13.42;85.11
57192;BME280;43052;52.588;13.396;2022-09-09T05:00:52;100678.47;;;13.51;85.40
57192;BME280;43052;52.588;13.396;2022-09-09T05:03:17;100683.47;;;13.63;85.14
57192;BME280;43052;52.588;13.396;2022-09-09T05:05:42;100671.13;;;13.68;85.07
57192;BME280;43052;52.588;13.396;2022-09-09T05:08:08;100683.97;;;13.84;85.00
57192;BME280;43052;52.588;13.396;2022-09-09T05:10:36;100686.25;;;13.99;84.75
57192;BME280;43052;52.588;13.396;2022-09-09T05:13:02;100689.50;;;14.14;84.59
57192;BME280;43052;52.588;13.396;2022-09-09T05:15:27;100683.00;;;14.29;84.52
57192;BME280;43052;52.588;13.396;2022-09-09T05:17:57;100680.00;;;14.46;84.34
57192;BME280;43052;52.588;13.396;2022-09-09T05:20:22;100682.03;;;14.73;83.93
57192;BME280;43052;52.588;13.396;2022-09-09T05:22:47;100689.59;;;15.22;83.58
57192;BME280;43052;52.588;13.396;2022-09-09T05:25:13;100685.97;;;16.51;82.25
57192;BME280;43052;52.588;13.396;2022-09-09T05:27:38;100681.66;;;18.03;80.11
57192;BME280;43052;52.588;13.396;2022-09-09T05:30:04;100684.41;;;19.54;78.06
57192;BME280;43052;52.588;13.396;2022-09-09T05:32:30;100676.09;;;20.40;76.49
57192;BME280;43052;52.588;13.396;2022-09-09T05:34:59;100676.38;;;20.89;76.13
57192;BME280;43052;52.588;13.396;2022-09-09T05:37:24;100677.16;;;21.78;73.06
57192;BME280;43052;52.588;13.396;2022-09-09T05:39:49;100679.00;;;22.73;68.92
57192;BME280;43052;52.588;13.396;2022-09-09T05:42:15;100669.78;;;23.83;63.88
57192;BME280;43052;52.588;13.396;2022-09-09T05:44:40;100668.19;;;24.64;60.52
57192;BME280;43052;52.588;13.396;2022-09-09T05:47:07;100671.25;;;25.39;56.79
57192;BME280;43052;52.588;13.396;2022-09-09T05:49:33;100654.00;;;25.81;53.43
57192;BME280;43052;52.588;13.396;2022-09-09T05:51:58;100670.81;;;25.71;51.02
57192;BME280;43052;52.588;13.396;2022-09-09T05:54:23;100668.88;;;25.21;52.30
57192;BME280;43052;52.588;13.396;2022-09-09T05:56:49;100672.88;;;24.75;52.37
57192;BME280;43052;52.588;13.396;2022-09-09T05:59:15;100673.84;;;25.40;51.96
57192;BME280;43052;52.588;13.396;2022-09-09T06:01:41;100673.13;;;26.01;50.05
57192;BME280;43052;52.588;13.396;2022-09-09T06:04:07;100675.88;;;26.25;49.45
57192;BME280;43052;52.588;13.396;2022-09-09T06:06:35;100680.34;;;27.22;46.39
57192;BME280;43052;52.588;13.396;2022-09-09T06:09:02;100687.69;;;28.34;44.43
57192;BME280;43052;52.588;13.396;2022-09-09T06:11:29;100676.91;;;29.52;41.38
57192;BME280;43052;52.588;13.396;2022-09-09T06:13:58;100683.28;;;30.23;40.00
57192;BME280;43052;52.588;13.396;2022-09-09T06:16:25;100690.31;;;30.75;37.56
57192;BME280;43052;52.588;13.396;2022-09-09T06:18:52;100690.41;;;31.32;36.47
57192;BME280;43052;52.588;13.396;2022-09-09T06:21:23;100700.47;;;30.42;37.36
57192;BME280;43052;52.588;13.396;2022-09-09T06:23:48;100696.28;;;29.46;38.48
57192;BME280;43052;52.588;13.396;2022-09-09T06:28:47;100702.38;;;31.10;36.00
57192;BME280;43052;52.588;13.396;2022-09-09T06:31:15;100695.78;;;32.17;34.65
57192;BME280;43052;52.588;13.396;2022-09-09T06:33:42;100688.75;;;33.15;32.59
57192;BME280;43052;52.588;13.396;2022-09-09T06:36:13;100686.84;;;33.86;30.88
57192;BME280;43052;52.588;13.396;2022-09-09T06:38:40;100690.09;;;34.49;30.02
57192;BME280;43052;52.588;13.396;2022-09-09T06:41:05;100698.13;;;35.01;29.47
57192;BME280;43052;52.588;13.396;2022-09-09T06:43:31;100704.53;;;35.41;28.91
57192;BME280;43052;52.588;13.396;2022-09-09T06:46:04;100698.09;;;35.90;28.20
57192;BME280;43052;52.588;13.396;2022-09-09T06:48:30;100713.78;;;35.88;29.05
57192;BME280;43052;52.588;13.396;2022-09-09T06:51:07;100704.63;;;33.81;30.07
57192;BME280;43052;52.588;13.396;2022-09-09T06:53:34;100722.59;;;31.73;32.01
57192;BME280;43052;52.588;13.396;2022-09-09T06:56:17;100713.28;;;29.68;35.01
57192;BME280;43052;52.588;13.396;2022-09-09T06:58:43;100720.69;;;28.36;37.50
57192;BME280;43052;52.588;13.396;2022-09-09T07:01:13;100721.00;;;27.40;39.41
57192;BME280;43052;52.588;13.396;2022-09-09T07:03:40;100717.22;;;27.31;40.06
57192;BME280;43052;52.588;13.396;2022-09-09T07:06:06;100711.38;;;29.59;37.76
57192;BME280;43052;52.588;13.396;2022-09-09T07:08:33;100702.94;;;32.37;32.99
57192;BME280;43052;52.588;13.396;2022-09-09T07:11:06;100708.63;;;34.79;29.79
57192;BME280;43052;52.588;13.396;2022-09-09T07:13:32;100696.44;;;36.75;26.08
57192;BME280;43052;52.588;13.396;2022-09-09T07:16:05;100693.69;;;38.12;24.71
57192;BME280;43052;52.588;13.396;2022-09-09T07:18:30;100698.88;;;39.43;23.48
57192;BME280;43052;52.588;13.396;2022-09-09T07:20:56;100704.66;;;40.59;22.50
57192;BME280;43052;52.588;13.396;2022-09-09T07:23:22;100710.97;;;40.60;22.08
57192;BME280;43052;52.588;13.396;2022-09-09T07:25:47;100702.31;;;39.59;22.50
57192;BME280;43052;52.588;13.396;2022-09-09T07:28:13;100707.41;;;39.62;22.93
57192;BME280;43052;52.588;13.396;2022-09-09T07:30:38;100703.81;;;40.99;21.54
57192;BME280;43052;52.588;13.396;2022-09-09T07:33:04;100710.38;;;42.04;20.45
57192;BME280;43052;52.588;13.396;2022-09-09T07:35:30;100704.28;;;42.34;19.70
57192;BME280;43052;52.588;13.396;2022-09-09T07:37:55;100702.50;;;42.53;19.09
57192;BME280;43052;52.588;13.396;2022-09-09T07:40:21;100708.66;;;42.73;18.37
57192;BME280;43052;52.588;13.396;2022-09-09T07:42:47;100701.47;;;42.72;18.72
57192;BME280;43052;52.588;13.396;2022-09-09T07:45:13;100701.41;;;43.30;18.48
57192;BME280;43052;52.588;13.396;2022-09-09T07:47:39;100706.81;;;43.80;17.86
57192;BME280;43052;52.588;13.396;2022-09-09T07:50:06;100717.63;;;44.12;17.22
57192;BME280;43052;52.588;13.396;2022-09-09T07:52:33;100704.94;;;44.96;16.23
57192;BME280;43052;52.588;13.396;2022-09-09T07:54:58;100705.44;;;46.10;15.40
57192;BME280;43052;52.588;13.396;2022-09-09T07:57:24;100706.72;;;47.17;14.81
57192;BME280;43052;52.588;13.396;2022-09-09T07:59:50;100705.28;;;48.25;14.05
57192;BME280;43052;52.588;13.396;2022-09-09T08:02:15;100713.38;;;47.82;13.71
57192;BME280;43052;52.588;13.396;2022-09-09T08:04:40;100713.91;;;45.39;15.36
57192;BME280;43052;52.588;13.396;2022-09-09T08:07:06;100713.69;;;42.83;16.85
57192;BME280;43052;52.588;13.396;2022-09-09T08:09:31;100709.75;;;41.09;19.16
57192;BME280;43052;52.588;13.396;2022-09-09T08:11:57;100712.94;;;41.85;18.84
57192;BME280;43052;52.588;13.396;2022-09-09T08:14:23;100718.69;;;42.61;17.89
57192;BME280;43052;52.588;13.396;2022-09-09T08:16:49;100714.56;;;44.33;16.74
57192;BME280;43052;52.588;13.396;2022-09-09T08:19:15;100711.31;;;45.73;15.50
57192;BME280;43052;52.588;13.396;2022-09-09T08:21:41;100712.09;;;46.89;14.94
57192;BME280;43052;52.588;13.396;2022-09-09T08:24:08;100716.34;;;47.98;13.74
57192;BME280;43052;52.588;13.396;2022-09-09T08:26:36;100720.09;;;48.69;12.47
57192;BME280;43052;52.588;13.396;2022-09-09T08:29:03;100719.94;;;49.23;12.60
57192;BME280;43052;52.588;13.396;2022-09-09T08:31:32;100715.44;;;49.70;12.15
57192;BME280;43052;52.588;13.396;2022-09-09T08:33:59;100725.09;;;49.58;12.08
57192;BME280;43052;52.588;13.396;2022-09-09T08:36:27;100714.91;;;47.12;13.33
57192;BME280;43052;52.588;13.396;2022-09-09T08:38:54;100721.63;;;43.98;16.54
57192;BME280;43052;52.588;13.396;2022-09-09T08:41:54;100721.53;;;42.02;17.73
57192;BME280;43052;52.588;13.396;2022-09-09T08:44:50;100715.56;;;41.66;18.74
57192;BME280;43052;52.588;13.396;2022-09-09T08:47:29;100719.44;;;44.19;16.95
57192;BME280;43052;52.588;13.396;2022-09-09T08:55:50;100726.94;;;39.94;18.99
57192;BME280;43052;52.588;13.396;2022-09-09T08:58:21;100729.50;;;37.78;21.30
57192;BME280;43052;52.588;13.396;2022-09-09T09:03:48;100727.97;;;34.59;25.23
57192;BME280;43052;52.588;13.396;2022-09-09T09:11:54;100730.78;;;31.34;30.31
57192;BME280;43052;52.588;13.396;2022-09-09T09:14:24;100726.88;;;30.48;32.28
57192;BME280;43052;52.588;13.396;2022-09-09T09:17:19;100722.13;;;29.80;32.89
57192;BME280;43052;52.588;13.396;2022-09-09T09:19:46;100731.78;;;29.19;33.86
57192;BME280;43052;52.588;13.396;2022-09-09T09:22:20;100724.31;;;29.01;34.37
57192;BME280;43052;52.588;13.396;2022-09-09T09:27:34;100718.56;;;30.81;32.05
57192;BME280;43052;52.588;13.396;2022-09-09T09:30:15;100722.09;;;32.25;29.91
57192;BME280;43052;52.588;13.396;2022-09-09T09:32:49;100721.97;;;33.17;29.09
57192;BME280;43052;52.588;13.396;2022-09-09T09:35:15;100722.56;;;34.76;27.24
57192;BME280;43052;52.588;13.396;2022-09-09T09:37:42;100720.06;;;37.21;24.43
57192;BME280;43052;52.588;13.396;2022-09-09T09:40:14;100730.41;;;40.16;21.31
57192;BME280;43052;52.588;13.396;2022-09-09T09:42:51;100719.84;;;43.48;17.72
57192;BME280;43052;52.588;13.396;2022-09-09T09:48:04;100715.97;;;46.88;14.65
57192;BME280;43052;52.588;13.396;2022-09-09T09:50:31;100718.94;;;47.60;13.90
57192;BME280;43052;52.588;13.396;2022-09-09T09:53:01;100727.41;;;47.98;13.38
57192;BME280;43052;52.588;13.396;2022-09-09T09:55:29;100725.09;;;48.39;12.93
57192;BME280;43052;52.588;13.396;2022-09-09T09:58:01;100720.63;;;49.03;12.61
57192;BME280;43052;52.588;13.396;2022-09-09T10:00:26;100731.91;;;49.34;12.05
57192;BME280;43052;52.588;13.396;2022-09-09T10:02:51;100728.69;;;49.53;11.60
57192;BME280;43052;52.588;13.396;2022-09-09T10:05:22;100725.50;;;49.34;11.44
57192;BME280;43052;52.588;13.396;2022-09-09T10:08:01;100715.34;;;49.02;11.58
57192;BME280;43052;52.588;13.396;2022-09-09T10:10:37;100720.91;;;49.02;11.55
57192;BME280;43052;52.588;13.396;2022-09-09T10:13:32;100721.81;;;48.75;11.76
57192;BME280;43052;52.588;13.396;2022-09-09T10:16:18;100722.66;;;47.71;13.07
57192;BME280;43052;52.588;13.396;2022-09-09T10:18:50;100722.50;;;45.78;14.22
57192;BME280;43052;52.588;13.396;2022-09-09T10:24:07;100726.56;;;40.66;18.18
57192;BME280;43052;52.588;13.396;2022-09-09T10:32:22;100727.91;;;35.83;23.76
57192;BME280;43052;52.588;13.396;2022-09-09T10:37:43;100715.91;;;34.02;26.01
57192;BME280;43052;52.588;13.396;2022-09-09T10:40:29;100713.81;;;33.62;27.61
57192;BME280;43052;52.588;13.396;2022-09-09T10:45:56;100719.16;;;32.83;27.83
57192;BME280;43052;52.588;13.396;2022-09-09T10:48:36;100730.22;;;32.25;29.55
57192;BME280;43052;52.588;13.396;2022-09-09T10:51:19;100730.44;;;32.04;30.09
57192;BME280;43052;52.588;13.396;2022-09-09T10:56:33;100718.28;;;31.90;30.22
57192;BME280;43052;52.588;13.396;2022-09-09T10:59:11;100716.00;;;31.18;30.92
57192;BME280;43052;52.588;13.396;2022-09-09T11:01:42;100722.53;;;30.57;31.71
57192;BME280;43052;52.588;13.396;2022-09-09T11:04:15;100725.69;;;30.21;32.37
57192;BME280;43052;52.588;13.396;2022-09-09T11:06:44;100722.88;;;30.32;32.83
57192;BME280;43052;52.588;13.396;2022-09-09T11:09:18;100720.03;;;30.14;33.00
57192;BME280;43052;52.588;13.396;2022-09-09T11:11:56;100715.16;;;29.77;33.19
57192;BME280;43052;52.588;13.396;2022-09-09T11:14:28;100717.25;;;29.10;33.39
57192;BME280;43052;52.588;13.396;2022-09-09T11:16:57;100726.09;;;28.36;34.08
57192;BME280;43052;52.588;13.396;2022-09-09T11:19:35;100725.38;;;28.11;35.08
57192;BME280;43052;52.588;13.396;2022-09-09T11:22:27;100726.59;;;28.07;35.19
57192;BME280;43052;52.588;13.396;2022-09-09T11:25:01;100731.84;;;28.20;35.74
57192;BME280;43052;52.588;13.396;2022-09-09T11:30:24;100735.47;;;27.84;36.40
57192;BME280;43052;52.588;13.396;2022-09-09T11:33:31;100722.41;;;27.57;36.41
57192;BME280;43052;52.588;13.396;2022-09-09T11:36:23;100727.25;;;27.41;36.80
57192;BME280;43052;52.588;13.396;2022-09-09T11:38:54;100726.53;;;27.14;37.46
57192;BME280;43052;52.588;13.396;2022-09-09T11:41:23;100728.06;;;26.94;37.69
57192;BME280;43052;52.588;13.396;2022-09-09T11:43:49;100726.22;;;26.95;37.96
57192;BME280;43052;52.588;13.396;2022-09-09T11:46:19;100718.53;;;26.66;37.97
57192;BME280;43052;52.588;13.396;2022-09-09T11:48:58;100720.75;;;26.35;39.08
57192;BME280;43052;52.588;13.396;2022-09-09T11:53:51;100709.25;;;26.21;38.88
57192;BME280;43052;52.588;13.396;2022-09-09T11:56:45;100709.78;;;26.14;39.58
57192;BME280;43052;52.588;13.396;2022-09-09T11:59:25;100707.75;;;26.17;39.93
57192;BME280;43052;52.588;13.396;2022-09-09T12:04:58;100692.13;;;26.11;39.76
57192;BME280;43052;52.588;13.396;2022-09-09T12:07:35;100698.75;;;25.92;40.30
57192;BME280;43052;52.588;13.396;2022-09-09T12:10:24;100689.25;;;25.62;39.29
57192;BME280;43052;52.588;13.396;2022-09-09T12:12:51;100681.88;;;25.53;39.28
57192;BME280;43052;52.588;13.396;2022-09-09T12:15:25;100685.41;;;25.67;38.75
57192;BME280;43052;52.588;13.396;2022-09-09T12:17:55;100690.53;;;25.70;40.38
57192;BME280;43052;52.588;13.396;2022-09-09T12:23:16;100675.84;;;25.37;40.89
57192;BME280;43052;52.588;13.396;2022-09-09T12:29:05;100673.38;;;25.85;39.12
57192;BME280;43052;52.588;13.396;2022-09-09T12:31:55;100677.00;;;26.10;38.88
57192;BME280;43052;52.588;13.396;2022-09-09T12:34:43;100667.16;;;25.85;39.05
57192;BME280;43052;52.588;13.396;2022-09-09T12:40:20;100663.69;;;25.45;39.86
57192;BME280;43052;52.588;13.396;2022-09-09T12:42:45;100669.66;;;25.36;40.22
57192;BME280;43052;52.588;13.396;2022-09-09T12:45:17;100671.16;;;25.40;40.85
57192;BME280;43052;52.588;13.396;2022-09-09T12:47:55;100670.50;;;25.49;40.52
57192;BME280;43052;52.588;13.396;2022-09-09T12:50:25;100662.72;;;25.59;39.57
57192;BME280;43052;52.588;13.396;2022-09-09T12:52:53;100647.16;;;25.64;39.59
57192;BME280;43052;52.588;13.396;2022-09-09T12:55:30;100653.72;;;25.73;39.43
57192;BME280;43052;52.588;13.396;2022-09-09T12:57:58;100657.88;;;25.64;38.77
57192;BME280;43052;52.588;13.396;2022-09-09T13:00:25;100659.38;;;25.69;39.41
57192;BME280;43052;52.588;13.396;2022-09-09T13:02:56;100665.47;;;25.71;39.45
57192;BME280;43052;52.588;13.396;2022-09-09T13:05:27;100664.31;;;25.62;39.21
57192;BME280;43052;52.588;13.396;2022-09-09T13:08:06;100662.91;;;25.56;39.23
57192;BME280;43052;52.588;13.396;2022-09-09T13:10:35;100669.34;;;25.54;39.08
57192;BME280;43052;52.588;13.396;2022-09-09T13:13:03;100661.66;;;25.49;39.37
57192;BME280;43052;52.588;13.396;2022-09-09T13:15:30;100672.88;;;25.54;39.26
57192;BME280;43052;52.588;13.396;2022-09-09T13:17:57;100672.34;;;25.49;39.16
57192;BME280;43052;52.588;13.396;2022-09-09T13:20:26;100672.78;;;25.56;39.17
57192;BME280;43052;52.588;13.396;2022-09-09T13:22:53;100665.28;;;25.61;39.35
57192;BME280;43052;52.588;13.396;2022-09-09T13:25:29;100663.22;;;25.64;39.11
57192;BME280;43052;52.588;13.396;2022-09-09T13:28:01;100665.16;;;25.62;39.73
57192;BME280;43052;52.588;13.396;2022-09-09T13:30:35;100663.56;;;25.47;39.45
57192;BME280;43052;52.588;13.396;2022-09-09T13:35:30;100648.88;;;25.27;40.52
57192;BME280;43052;52.588;13.396;2022-09-09T13:37:55;100641.38;;;25.19;41.09
57192;BME280;43052;52.588;13.396;2022-09-09T13:40:22;100642.97;;;25.22;40.45
57192;BME280;43052;52.588;13.396;2022-09-09T13:42:52;100641.91;;;25.24;40.24
57192;BME280;43052;52.588;13.396;2022-09-09T13:45:20;100636.13;;;25.30;40.45
57192;BME280;43052;52.588;13.396;2022-09-09T13:47:46;100649.66;;;25.42;39.91
57192;BME280;43052;52.588;13.396;2022-09-09T13:50:29;100647.50;;;25.47;40.04
57192;BME280;43052;52.588;13.396;2022-09-09T13:52:56;100642.66;;;25.52;40.27
57192;BME280;43052;52.588;13.396;2022-09-09T13:55:27;100641.81;;;25.52;40.42
57192;BME280;43052;52.588;13.396;2022-09-09T13:57:54;100642.25;;;25.58;39.78
57192;BME280;43052;52.588;13.396;2022-09-09T14:00:21;100641.81;;;25.64;39.03
57192;BME280;43052;52.588;13.396;2022-09-09T14:02:47;100649.28;;;25.85;39.53
57192;BME280;43052;52.588;13.396;2022-09-09T14:05:12;100649.25;;;25.98;39.14
57192;BME280;43052;52.588;13.396;2022-09-09T14:07:39;100643.44;;;26.04;38.51
57192;BME280;43052;52.588;13.396;2022-09-09T14:10:05;100632.44;;;25.96;38.30
57192;BME280;43052;52.588;13.396;2022-09-09T14:12:31;100641.22;;;25.98;38.08
57192;BME280;43052;52.588;13.396;2022-09-09T14:14:56;100654.81;;;25.95;38.38
57192;BME280;43052;52.588;13.396;2022-09-09T14:17:21;100655.41;;;25.87;38.84
57192;BME280;43052;52.588;13.396;2022-09-09T14:19:47;100647.69;;;25.83;38.80
57192;BME280;43052;52.588;13.396;2022-09-09T14:22:12;100645.72;;;25.85;39.49
57192;BME280;43052;52.588;13.396;2022-09-09T14:24:37;100644.69;;;25.87;39.15
57192;BME280;43052;52.588;13.396;2022-09-09T14:27:03;100645.53;;;25.88;39.30
57192;BME280;43052;52.588;13.396;2022-09-09T14:29:28;100642.53;;;25.79;38.74
57192;BME280;43052;52.588;13.396;2022-09-09T14:31:53;100645.00;;;25.70;39.26